Terminal Aerodrome Forecast
Issued by NWS

Home | Current Version | Previous Version | Text Only | Print | Product List | Glossary On
Versions: 1 2 3 4 5 6 7 8 9 10 11 12 13 14 15 16 17
000
FTUS43 KILX 282300
TAFCMI
TAF
KCMI 282331Z 2900/2924 VRB05KT P6SM SKC
     FM290500 15009KT P6SM BKN200
     FM291300 16018G24KT P6SM SCT040 BKN100
     FM291600 19023G31KT P6SM VCSH BKN035=

USA.gov is the U.S. government's official web portal to all federal, state and local government web resources and services.